Time;durP1;ratioP1;P1;durP2;ratioP2;P2;SDS_P1;SDS_P2;PMS_P1;PMS_P2;Temp;Humidity;BMP_temperature;BMP_pressure;BME280_temperature;BME280_humidity;BME280_pressure;Samples;Min_cycle;Max_cycle;Signal;HPM_P1;HPM_P2
2022/03/15 00:01:52;;;;;;;7.22;5.75;;;21.70;63.00;;;;;;6181194;28;87854;-64
2022/03/15 00:04:55;;;;;;;6.25;5.45;;;21.70;63.90;;;;;;6183063;28;89329;-65
2022/03/15 00:07:57;;;;;;;6.85;5.32;;;21.70;63.00;;;;;;6182075;28;89078;-65
2022/03/15 00:11:04;;;;;;;6.70;5.60;;;21.70;63.00;;;;;;6182260;28;89060;-65
2022/03/15 00:14:08;;;;;;;6.30;5.18;;;21.70;63.00;;;;;;6181340;28;88451;-64
2022/03/15 00:17:12;;;;;;;5.93;5.32;;;21.70;63.10;;;;;;6182668;28;87981;-64
2022/03/15 00:20:33;;;;;;;5.45;4.95;;;21.70;63.20;;;;;;6183789;28;89029;-65
2022/03/15 00:23:35;;;;;;;5.82;4.63;;;21.60;63.10;;;;;;6182848;28;90162;-64
2022/03/15 00:26:37;;;;;;;6.25;5.65;;;21.70;63.20;;;;;;6183523;28;89099;-64
2022/03/15 00:29:40;;;;;;;5.85;5.05;;;21.60;63.10;;;;;;6181656;28;89077;-64
2022/03/15 00:32:43;;;;;;;5.63;4.95;;;21.60;63.10;;;;;;6181075;28;89232;-64
2022/03/15 00:35:47;;;;;;;6.28;5.45;;;21.60;63.10;;;;;;6182469;28;89044;-64
2022/03/15 00:38:49;;;;;;;6.47;5.05;;;21.60;63.00;;;;;;6181937;28;88923;-64
2022/03/15 00:41:51;;;;;;;6.13;5.30;;;21.60;63.00;;;;;;6182001;28;87982;-65
2022/03/15 00:44:52;;;;;;;6.63;5.47;;;21.60;62.80;;;;;;6181869;28;88671;-64
2022/03/15 00:47:58;;;;;;;7.53;5.20;;;21.60;62.60;;;;;;6182195;28;87932;-64
2022/03/15 00:51:00;;;;;;;6.50;5.30;;;21.60;62.80;;;;;;6181185;28;89925;-64
2022/03/15 00:54:02;;;;;;;6.05;5.18;;;21.60;62.80;;;;;;6175925;28;88802;-64
2022/03/15 00:57:04;;;;;;;6.55;5.20;;;21.60;62.90;;;;;;6164029;28;89077;-64
2022/03/15 01:00:08;;;;;;;5.53;5.00;;;21.60;63.00;;;;;;6182656;28;88052;-64
2022/03/15 01:03:11;;;;;;;5.53;4.95;;;21.60;63.00;;;;;;6180690;28;88982;-64
2022/03/15 01:06:13;;;;;;;5.65;4.88;;;21.50;63.00;;;;;;6183831;28;89106;-64
2022/03/15 01:09:15;;;;;;;5.50;4.90;;;21.50;63.00;;;;;;6185883;28;89374;-64
2022/03/15 01:12:18;;;;;;;5.47;4.97;;;21.50;63.10;;;;;;6186493;28;89010;-64
2022/03/15 01:15:20;;;;;;;5.20;4.78;;;21.50;63.10;;;;;;6186950;28;88376;-64
2022/03/15 01:18:24;;;;;;;5.32;4.82;;;21.50;63.20;;;;;;6185562;28;89048;-64
2022/03/15 01:21:26;;;;;;;5.70;5.20;;;21.50;63.20;;;;;;6186511;28;89005;-64
2022/03/15 01:24:47;;;;;;;5.50;5.00;;;21.50;63.20;;;;;;6184830;28;89116;-64
2022/03/15 01:27:49;;;;;;;6.07;5.47;;;21.50;63.20;;;;;;6186300;28;87978;-64
2022/03/15 01:30:51;;;;;;;6.18;5.57;;;21.50;63.30;;;;;;6187249;28;89069;-64
2022/03/15 01:33:55;;;;;;;6.45;5.35;;;21.50;63.30;;;;;;6185430;28;87885;-64
2022/03/15 01:36:58;;;;;;;6.53;5.68;;;21.50;63.30;;;;;;6185920;28;89082;-64
2022/03/15 01:40:00;;;;;;;6.95;6.10;;;21.40;63.20;;;;;;6184507;28;89371;-64
2022/03/15 01:43:02;;;;;;;6.90;6.18;;;21.40;63.20;;;;;;6186563;28;89415;-64
2022/03/15 01:46:05;;;;;;;7.40;6.30;;;21.40;63.20;;;;;;6184827;28;88233;-64
2022/03/15 01:49:08;;;;;;;7.47;6.65;;;21.40;63.20;;;;;;6182229;28;89409;-64
2022/03/15 01:52:12;;;;;;;7.28;6.57;;;21.40;63.20;;;;;;6185328;28;89360;-64
2022/03/15 01:55:15;;;;;;;7.30;6.60;;;21.40;63.20;;;;;;6174538;28;88864;-64
2022/03/15 01:58:17;;;;;;;7.65;6.95;;;21.40;63.20;;;;;;6184152;28;89173;-65
2022/03/15 02:01:19;;;;;;;8.30;7.50;;;21.40;63.20;;;;;;6183143;28;87976;-64
2022/03/15 02:04:23;;;;;;;7.97;7.18;;;21.40;63.20;;;;;;6183977;28;89250;-64
2022/03/15 02:07:25;;;;;;;7.90;7.20;;;21.40;63.30;;;;;;6184385;28;89059;-64
2022/03/15 02:10:27;;;;;;;8.02;7.28;;;21.40;63.30;;;;;;6183977;28;89420;-64
2022/03/15 02:13:29;;;;;;;8.73;7.50;;;21.40;63.30;;;;;;6183296;28;89159;-64
2022/03/15 02:16:32;;;;;;;9.05;8.15;;;21.30;63.20;;;;;;6185853;28;88681;-64
2022/03/15 02:19:36;;;;;;;8.68;7.88;;;21.30;63.30;;;;;;6184647;28;89360;-64
2022/03/15 02:22:40;;;;;;;9.07;8.23;;;21.30;63.30;;;;;;6184087;28;89090;-64
2022/03/15 02:25:42;;;;;;;8.45;7.65;;;21.30;63.30;;;;;;6184307;28;89773;-64
2022/03/15 02:28:44;;;;;;;11.20;8.10;;;21.30;63.30;;;;;;6182790;28;89288;-64
2022/03/15 02:31:46;;;;;;;9.32;8.43;;;21.30;63.20;;;;;;6183467;28;89406;-64
2022/03/15 02:34:48;;;;;;;11.23;8.27;;;21.30;63.10;;;;;;6184019;28;87918;-65
2022/03/15 02:37:52;;;;;;;9.43;8.52;;;21.30;63.10;;;;;;6184805;28;88238;-64
2022/03/15 02:40:54;;;;;;;10.00;9.00;;;21.30;63.30;;;;;;6183565;28;89148;-64
2022/03/15 02:43:57;;;;;;;9.30;8.40;;;21.30;63.30;;;;;;6184974;28;89516;-64
2022/03/15 02:46:59;;;;;;;9.75;8.85;;;21.30;63.30;;;;;;6184836;28;87119;-64
2022/03/15 02:50:01;;;;;;;9.70;8.80;;;21.30;63.30;;;;;;6183314;28;89032;-64
2022/03/15 02:53:05;;;;;;;9.70;8.70;;;21.30;63.30;;;;;;6184606;28;89175;-64
2022/03/15 02:56:10;;;;;;;9.95;8.95;;;21.30;63.30;;;;;;6176287;28;89083;-64
2022/03/15 02:59:14;;;;;;;10.48;9.30;;;21.30;63.30;;;;;;6184793;28;89285;-65
2022/03/15 03:02:17;;;;;;;10.20;9.20;;;21.30;63.30;;;;;;6182617;28;89054;-64
2022/03/15 03:05:19;;;;;;;10.23;9.23;;;21.30;63.40;;;;;;6183431;28;89153;-64
2022/03/15 03:08:27;;;;;;;10.38;9.35;;;21.20;63.30;;;;;;6182433;28;87938;-64
2022/03/15 03:14:50;;;;;;;10.20;9.20;;;21.20;63.30;;;;;;6185212;28;87010;-64
2022/03/15 03:17:52;;;;;;;10.50;9.50;;;21.20;63.30;;;;;;6184868;28;88329;-64
2022/03/15 03:20:54;;;;;;;10.10;9.07;;;21.20;63.30;;;;;;6181974;28;89089;-65
2022/03/15 03:23:57;;;;;;;10.10;9.10;;;21.20;63.40;;;;;;6182920;28;89116;-64
2022/03/15 03:27:01;;;;;;;10.40;9.30;;;21.20;63.30;;;;;;6183271;28;90162;-65
2022/03/15 03:30:04;;;;;;;10.77;9.68;;;21.20;63.30;;;;;;6181560;28;89123;-64
2022/03/15 03:33:06;;;;;;;10.65;9.65;;;21.20;63.30;;;;;;6183782;28;88950;-65
2022/03/15 03:36:09;;;;;;;10.40;9.40;;;21.20;63.50;;;;;;6184522;28;89049;-65
2022/03/15 03:39:13;;;;;;;10.38;9.32;;;21.20;63.40;;;;;;6183421;28;88221;-65
2022/03/15 03:42:15;;;;;;;11.02;9.32;;;21.20;63.40;;;;;;6184002;28;89065;-65
2022/03/15 03:45:17;;;;;;;11.00;9.90;;;21.20;63.50;;;;;;6182616;28;88169;-65
2022/03/15 03:48:19;;;;;;;11.55;10.25;;;21.20;63.40;;;;;;6183458;28;88292;-64
2022/03/15 03:51:21;;;;;;;10.23;9.13;;;21.20;63.50;;;;;;6181248;28;88996;-65
2022/03/15 03:54:25;;;;;;;10.80;9.70;;;21.10;63.40;;;;;;6173747;28;89131;-65
2022/03/15 03:57:27;;;;;;;11.02;9.93;;;21.20;63.40;;;;;;6158267;28;90009;-65
2022/03/15 04:00:29;;;;;;;10.13;9.13;;;21.10;63.40;;;;;;6165399;28;89278;-64
2022/03/15 04:03:32;;;;;;;10.65;9.60;;;21.20;63.40;;;;;;6180616;28;87884;-64
2022/03/15 04:06:35;;;;;;;10.70;9.70;;;21.10;63.10;;;;;;6182358;28;89021;-64
2022/03/15 04:09:39;;;;;;;10.85;9.85;;;21.20;63.10;;;;;;6181048;28;88919;-64
2022/03/15 04:12:41;;;;;;;10.35;9.35;;;21.10;62.90;;;;;;6183395;28;89368;-65
2022/03/15 04:15:43;;;;;;;10.45;9.45;;;21.20;63.00;;;;;;6182533;28;89072;-64
2022/03/15 04:18:46;;;;;;;9.80;8.90;;;21.20;62.90;;;;;;6182431;28;88412;-64
2022/03/15 04:21:48;;;;;;;10.00;9.00;;;21.20;62.90;;;;;;6181687;28;88108;-64
2022/03/15 04:24:51;;;;;;;10.25;9.27;;;21.20;62.90;;;;;;6183200;28;89048;-64
2022/03/15 04:27:56;;;;;;;10.10;9.10;;;21.20;62.80;;;;;;6181346;28;90127;-64
2022/03/15 04:30:58;;;;;;;9.82;8.82;;;21.30;62.80;;;;;;6181747;28;88284;-64
2022/03/15 04:34:00;;;;;;;10.50;9.40;;;21.30;62.70;;;;;;6180747;28;89075;-64
2022/03/15 04:37:02;;;;;;;10.27;9.20;;;21.30;62.70;;;;;;6183576;28;89088;-64
2022/03/15 04:40:08;;;;;;;9.80;8.88;;;21.40;62.70;;;;;;6182887;28;89326;-64
2022/03/15 04:43:10;;;;;;;9.45;8.55;;;21.40;62.70;;;;;;6186962;28;87857;-64
2022/03/15 04:46:12;;;;;;;10.07;9.07;;;21.40;62.50;;;;;;6185963;28;88643;-64
2022/03/15 04:49:14;;;;;;;9.98;8.98;;;21.50;62.50;;;;;;6187826;28;88359;-64
2022/03/15 04:52:17;;;;;;;10.05;9.07;;;21.50;62.40;;;;;;6186483;28;89051;-64
2022/03/15 04:55:21;;;;;;;9.60;8.70;;;21.50;62.40;;;;;;6179416;28;89432;-64
2022/03/15 04:58:23;;;;;;;9.63;8.73;;;21.50;62.30;;;;;;6185854;28;90386;-64
2022/03/15 05:01:25;;;;;;;9.07;8.27;;;21.50;62.20;;;;;;6185768;28;89141;-64
2022/03/15 05:04:27;;;;;;;9.20;8.30;;;21.60;62.20;;;;;;6185275;28;88260;-64
2022/03/15 05:07:29;;;;;;;9.60;8.60;;;21.60;62.20;;;;;;6185821;28;89218;-64
2022/03/15 05:13:52;;;;;;;8.70;7.85;;;21.70;62.00;;;;;;6183395;28;87137;-64
2022/03/15 05:16:54;;;;;;;10.27;9.25;;;21.70;62.00;;;;;;6185954;28;89351;-64
2022/03/15 05:19:56;;;;;;;8.63;7.82;;;21.80;62.00;;;;;;6186235;28;88189;-64
2022/03/15 05:22:58;;;;;;;9.15;8.25;;;21.80;61.80;;;;;;6185820;28;89063;-64
2022/03/15 05:26:02;;;;;;;9.20;8.30;;;21.70;61.80;;;;;;6185490;28;88880;-65
2022/03/15 05:29:04;;;;;;;9.20;8.30;;;21.80;61.80;;;;;;6186151;28;89961;-64
2022/03/15 05:32:06;;;;;;;9.27;8.35;;;21.80;61.80;;;;;;6184572;28;89045;-64
2022/03/15 05:35:09;;;;;;;8.77;7.97;;;21.80;61.80;;;;;;6186019;28;89168;-64
2022/03/15 05:38:10;;;;;;;9.15;8.27;;;21.80;61.60;;;;;;6184250;28;89071;-64
2022/03/15 05:41:14;;;;;;;9.02;8.15;;;21.80;61.60;;;;;;6186133;28;89135;-64
2022/03/15 05:44:16;;;;;;;8.55;7.70;;;21.80;61.60;;;;;;6186858;28;88415;-64
2022/03/15 05:47:18;;;;;;;8.00;7.20;;;21.80;61.50;;;;;;6184873;28;89088;-64
2022/03/15 05:50:20;;;;;;;8.73;7.93;;;21.80;61.30;;;;;;6184523;28;88690;-64
2022/03/15 05:53:22;;;;;;;8.20;7.45;;;21.80;61.30;;;;;;6186097;28;89256;-64
2022/03/15 05:56:25;;;;;;;8.25;7.43;;;21.80;61.30;;;;;;6177084;28;89076;-64
2022/03/15 05:59:27;;;;;;;8.20;7.50;;;21.80;61.30;;;;;;6159969;28;90146;-64
2022/03/15 06:02:29;;;;;;;8.20;7.40;;;21.80;61.50;;;;;;6160224;28;89154;-64
2022/03/15 06:05:31;;;;;;;7.78;6.97;;;21.80;61.60;;;;;;6160999;28;89299;-64
2022/03/15 06:08:33;;;;;;;8.35;7.45;;;21.80;61.70;;;;;;6160613;28;88947;-63
2022/03/15 06:11:39;;;;;;;13.57;7.70;;;21.90;61.70;;;;;;6183601;28;89647;-64
2022/03/15 06:14:41;;;;;;;7.57;6.78;;;21.90;61.60;;;;;;6184566;28;89154;-64
2022/03/15 06:17:47;;;;;;;8.10;7.30;;;21.90;61.60;;;;;;6184016;28;89079;-64
2022/03/15 06:20:49;;;;;;;8.80;7.38;;;21.90;61.60;;;;;;6183430;28;88238;-64
2022/03/15 06:23:51;;;;;;;7.90;7.10;;;21.90;62.50;;;;;;6184752;28;89061;-64
2022/03/15 06:26:55;;;;;;;8.10;7.30;;;21.90;61.50;;;;;;6184889;28;89130;-64
2022/03/15 06:29:57;;;;;;;8.02;7.13;;;21.90;61.50;;;;;;6184009;28;90385;-64
2022/03/15 06:32:59;;;;;;;7.43;6.72;;;21.90;61.50;;;;;;6183277;28;89129;-65
2022/03/15 06:36:01;;;;;;;8.25;7.32;;;21.90;61.50;;;;;;6185600;28;89087;-64
2022/03/15 06:39:05;;;;;;;7.43;6.72;;;22.00;61.50;;;;;;6183551;28;89192;-64
2022/03/15 06:42:10;;;;;;;8.32;7.53;;;22.00;61.50;;;;;;6185610;28;89045;-65
2022/03/15 06:45:12;;;;;;;8.10;6.60;;;22.00;61.40;;;;;;6183994;28;89559;-64
2022/03/15 06:48:15;;;;;;;7.45;6.75;;;22.00;61.50;;;;;;6183536;28;89127;-64
2022/03/15 06:51:17;;;;;;;8.43;7.18;;;22.00;61.40;;;;;;6185938;28;88518;-64
2022/03/15 06:54:19;;;;;;;8.13;7.00;;;22.00;61.30;;;;;;6178021;28;88961;-64
2022/03/15 06:57:22;;;;;;;7.22;6.53;;;22.00;61.30;;;;;;6185077;28;89451;-64
2022/03/15 07:00:24;;;;;;;7.00;6.35;;;22.00;61.30;;;;;;6182161;28;90031;-64
2022/03/15 07:03:26;;;;;;;7.30;6.60;;;22.00;61.30;;;;;;6184452;28;89141;-64
2022/03/15 07:06:28;;;;;;;7.18;6.57;;;22.00;61.30;;;;;;6183972;28;88299;-64
2022/03/15 07:09:30;;;;;;;8.10;6.93;;;22.00;61.30;;;;;;6183650;28;89122;-64
2022/03/15 07:12:34;;;;;;;7.47;6.82;;;22.10;61.30;;;;;;6183711;28;88142;-64
2022/03/15 07:15:36;;;;;;;7.45;6.53;;;22.00;61.30;;;;;;6183883;28;89149;-64
2022/03/15 07:18:37;;;;;;;7.43;6.65;;;22.00;61.30;;;;;;6181938;28;89107;-64
2022/03/15 07:21:40;;;;;;;7.22;6.53;;;22.10;61.30;;;;;;6182874;28;88340;-64
2022/03/15 07:24:42;;;;;;;6.97;6.38;;;22.10;61.30;;;;;;6182921;28;89159;-64
2022/03/15 07:27:46;;;;;;;6.80;6.13;;;22.10;61.30;;;;;;6184579;28;89042;-64
2022/03/15 07:30:47;;;;;;;7.10;6.40;;;22.10;61.20;;;;;;6182614;28;88923;-64
2022/03/15 07:33:49;;;;;;;7.05;6.32;;;22.10;61.20;;;;;;6182162;28;89167;-64
2022/03/15 07:36:51;;;;;;;6.93;6.22;;;22.10;61.10;;;;;;6184379;28;89032;-64
2022/03/15 07:39:53;;;;;;;6.50;5.90;;;22.10;61.10;;;;;;6183798;28;87968;-64
2022/03/15 07:42:57;;;;;;;6.13;5.63;;;22.10;61.10;;;;;;6183202;28;89148;-64
2022/03/15 07:45:59;;;;;;;7.28;6.57;;;22.10;61.10;;;;;;6182777;28;89079;-64
2022/03/15 07:49:01;;;;;;;6.50;5.90;;;22.10;61.00;;;;;;6181279;28;89091;-64
2022/03/15 07:52:04;;;;;;;6.25;5.60;;;22.10;61.00;;;;;;6181126;28;87232;-64
2022/03/15 07:55:08;;;;;;;6.60;6.00;;;22.10;61.00;;;;;;6174781;28;88722;-64
2022/03/15 07:58:11;;;;;;;6.57;5.82;;;22.10;61.00;;;;;;6184461;28;89086;-64
2022/03/15 08:01:13;;;;;;;6.55;5.95;;;22.10;61.00;;;;;;6182607;28;89939;-64
2022/03/15 08:04:16;;;;;;;6.25;5.70;;;22.10;61.00;;;;;;6182739;28;89150;-64
2022/03/15 08:07:18;;;;;;;6.25;5.65;;;22.10;61.00;;;;;;6181846;28;89128;-64
2022/03/15 08:10:20;;;;;;;6.22;5.72;;;22.10;61.00;;;;;;6181937;28;89201;-64
2022/03/15 08:13:23;;;;;;;6.35;5.75;;;22.20;61.00;;;;;;6181462;28;89051;-64
2022/03/15 08:16:26;;;;;;;6.45;5.80;;;22.20;61.00;;;;;;6182510;28;89061;-64
2022/03/15 08:19:28;;;;;;;6.75;6.10;;;22.20;61.10;;;;;;6181677;28;89028;-64
2022/03/15 08:22:31;;;;;;;6.55;5.95;;;22.20;61.10;;;;;;6183154;28;88389;-64
2022/03/15 08:25:33;;;;;;;6.20;5.60;;;22.20;61.10;;;;;;6183067;28;89096;-64
2022/03/15 08:28:37;;;;;;;5.68;5.18;;;22.20;61.10;;;;;;6180727;28;89157;-64
2022/03/15 08:31:39;;;;;;;6.47;5.88;;;22.20;61.00;;;;;;6181878;28;89274;-64
2022/03/15 08:34:42;;;;;;;6.38;5.78;;;22.20;61.00;;;;;;6181191;28;88996;-64
2022/03/15 08:37:50;;;;;;;5.70;5.20;;;22.20;61.00;;;;;;6183184;28;89077;-64
2022/03/15 08:40:52;;;;;;;5.95;5.45;;;22.20;61.00;;;;;;6181540;28;87962;-64
2022/03/15 08:43:55;;;;;;;5.78;5.28;;;22.20;61.00;;;;;;6181439;28;89064;-64
2022/03/15 08:46:57;;;;;;;6.13;5.15;;;22.20;61.00;;;;;;6183275;28;89033;-64
2022/03/15 08:49:59;;;;;;;5.93;5.43;;;22.20;61.00;;;;;;6180707;28;89118;-64
2022/03/15 08:53:01;;;;;;;5.88;5.38;;;22.30;61.00;;;;;;6182484;28;88351;-64
2022/03/15 08:56:04;;;;;;;5.80;5.30;;;22.30;61.00;;;;;;6173184;28;89150;-64
2022/03/15 08:59:07;;;;;;;5.70;5.20;;;22.30;61.00;;;;;;6183330;28;87972;-64
2022/03/15 09:02:12;;;;;;;5.45;5.05;;;22.30;61.00;;;;;;6180369;28;88977;-64
2022/03/15 09:05:16;;;;;;;5.80;5.30;;;22.30;61.00;;;;;;6183808;28;89605;-64
2022/03/15 09:08:18;;;;;;;5.43;4.93;;;22.20;60.90;;;;;;6181626;28;89907;-64
2022/03/15 09:11:20;;;;;;;5.55;5.05;;;22.30;61.00;;;;;;6180155;28;89017;-64
2022/03/15 09:14:24;;;;;;;6.03;5.53;;;22.30;61.00;;;;;;6182598;28;89401;-64
2022/03/15 09:17:26;;;;;;;5.75;5.28;;;22.30;61.00;;;;;;6181979;28;88144;-64
2022/03/15 09:20:28;;;;;;;5.50;5.00;;;22.30;61.00;;;;;;6181368;28;89055;-64
2022/03/15 09:23:30;;;;;;;5.68;5.05;;;22.30;61.00;;;;;;6180514;28;88804;-64
2022/03/15 09:26:34;;;;;;;5.25;4.80;;;22.30;61.00;;;;;;6182780;28;89001;-64
2022/03/15 09:29:37;;;;;;;5.82;5.32;;;22.30;61.00;;;;;;6185677;28;89007;-64
2022/03/15 09:32:39;;;;;;;5.18;4.78;;;22.30;61.00;;;;;;6185738;28;90289;-64
2022/03/15 09:35:42;;;;;;;5.20;4.80;;;22.30;61.00;;;;;;6186555;28;89073;-64
2022/03/15 09:39:07;;;;;;;5.30;4.80;;;22.30;61.00;;;;;;6185434;28;89072;-64
2022/03/15 09:42:10;;;;;;;5.53;5.03;;;22.30;61.10;;;;;;6186114;28;89062;-64
2022/03/15 09:45:15;;;;;;;5.68;5.18;;;22.30;61.00;;;;;;6184772;28;89213;-64
2022/03/15 09:48:20;;;;;;;5.30;4.80;;;22.30;61.00;;;;;;6186434;28;89449;-64
2022/03/15 09:51:23;;;;;;;5.03;4.63;;;22.30;61.00;;;;;;6184286;28;89091;-64
2022/03/15 09:54:25;;;;;;;4.88;4.47;;;22.30;62.00;;;;;;6178629;28;88607;-64
2022/03/15 09:57:28;;;;;;;5.05;4.65;;;22.30;61.00;;;;;;6161185;28;89425;-64
2022/03/15 10:00:31;;;;;;;4.85;4.35;;;22.30;61.00;;;;;;6173514;28;89266;-64
2022/03/15 10:03:34;;;;;;;4.90;4.50;;;22.30;61.00;;;;;;6183745;28;90097;-64
2022/03/15 10:06:37;;;;;;;5.22;4.75;;;22.40;61.00;;;;;;6183498;28;89089;-64
2022/03/15 10:09:40;;;;;;;5.00;4.50;;;22.40;61.00;;;;;;6185659;28;89271;-64
2022/03/15 10:12:42;;;;;;;5.00;4.60;;;22.30;61.00;;;;;;6184331;28;89104;-64
2022/03/15 10:15:53;;;;;;;5.00;4.50;;;22.40;61.00;;;;;;6185163;28;89058;-64
2022/03/15 10:18:57;;;;;;;5.22;4.72;;;22.30;61.00;;;;;;6183679;28;89446;-64
2022/03/15 10:22:00;;;;;;;4.90;4.50;;;22.40;61.00;;;;;;6184253;28;89160;-65
2022/03/15 10:25:03;;;;;;;4.82;4.40;;;22.40;61.00;;;;;;6186513;28;88689;-64
2022/03/15 10:28:06;;;;;;;4.70;4.30;;;22.40;61.00;;;;;;6184032;28;88011;-64
2022/03/15 10:31:11;;;;;;;4.63;4.20;;;22.40;61.00;;;;;;6184821;28;89423;-64
2022/03/15 10:34:15;;;;;;;5.03;4.53;;;22.30;61.00;;;;;;6183952;28;89966;-64
2022/03/15 10:37:19;;;;;;;5.10;4.70;;;22.30;61.00;;;;;;6183323;28;89377;-64
2022/03/15 10:40:32;;;;;;;4.90;4.50;;;22.40;61.00;;;;;;6183231;28;89044;-64
2022/03/15 10:43:34;;;;;;;4.95;4.50;;;22.40;61.10;;;;;;6185013;28;89110;-64
2022/03/15 10:46:37;;;;;;;4.75;4.35;;;22.40;61.10;;;;;;6184580;28;89171;-64
2022/03/15 10:49:48;;;;;;;4.60;4.20;;;22.40;61.10;;;;;;6183900;28;89434;-64
2022/03/15 10:52:51;;;;;;;4.55;4.15;;;22.30;61.00;;;;;;6182817;28;89025;-65
2022/03/15 10:56:08;;;;;;;5.32;4.82;;;22.40;61.10;;;;;;6177987;28;88364;-64
2022/03/15 10:59:15;;;;;;;4.85;4.45;;;22.40;61.10;;;;;;6183839;28;89186;-64
2022/03/15 11:02:18;;;;;;;4.65;4.25;;;22.30;61.00;;;;;;6184479;28;88798;-64
2022/03/15 11:05:30;;;;;;;4.10;3.80;;;22.40;61.00;;;;;;6182490;28;90044;-64
2022/03/15 11:08:32;;;;;;;4.53;4.13;;;22.40;61.00;;;;;;6184021;28;89035;-64
2022/03/15 11:11:38;;;;;;;4.75;4.35;;;22.40;61.10;;;;;;6184836;28;89085;-64
2022/03/15 11:14:45;;;;;;;4.43;4.03;;;22.40;61.00;;;;;;6184713;28;90600;-64
2022/03/15 11:17:49;;;;;;;4.60;4.20;;;22.40;61.10;;;;;;6184811;28;88993;-64
2022/03/15 11:20:52;;;;;;;4.28;3.90;;;22.40;61.10;;;;;;6182737;28;89562;-64
2022/03/15 11:23:59;;;;;;;4.70;4.30;;;22.40;61.10;;;;;;6183090;28;89216;-64
2022/03/15 11:27:02;;;;;;;4.25;3.95;;;22.30;61.00;;;;;;6183166;28;87402;-64
2022/03/15 11:30:07;;;;;;;4.50;4.10;;;22.40;61.00;;;;;;6183777;28;89251;-64
2022/03/15 11:33:13;;;;;;;3.95;3.65;;;22.40;61.00;;;;;;6183533;28;89463;-64
2022/03/15 11:36:15;;;;;;;4.20;3.90;;;22.40;61.00;;;;;;6183588;28;89101;-64
2022/03/15 11:39:17;;;;;;;4.50;4.10;;;22.40;61.00;;;;;;6182802;28;88128;-64
2022/03/15 11:42:20;;;;;;;4.32;3.88;;;22.40;61.00;;;;;;6182935;28;88986;-64
2022/03/15 11:45:25;;;;;;;4.10;3.80;;;22.40;61.10;;;;;;6184986;28;87642;-64
2022/03/15 11:48:37;;;;;;;4.05;3.75;;;22.40;61.00;;;;;;6182217;28;88887;-64
2022/03/15 11:51:46;;;;;;;4.25;3.92;;;22.40;61.00;;;;;;6181933;28;89092;-64
2022/03/15 11:54:53;;;;;;;4.00;3.70;;;22.40;61.10;;;;;;6174166;28;89031;-64
2022/03/15 11:58:03;;;;;;;3.85;3.55;;;22.40;61.10;;;;;;6183151;28;88401;-64
2022/03/15 12:01:10;;;;;;;3.85;3.55;;;22.40;61.00;;;;;;6181797;28;87984;-64
2022/03/15 12:04:13;;;;;;;4.35;3.95;;;22.40;62.00;;;;;;6181564;28;89341;-64
2022/03/15 12:07:16;;;;;;;3.97;3.67;;;22.40;61.00;;;;;;6183140;28;88910;-64
2022/03/15 12:10:24;;;;;;;3.90;3.60;;;22.40;61.00;;;;;;6182853;28;87983;-64
2022/03/15 12:13:34;;;;;;;4.40;4.00;;;22.40;61.00;;;;;;6182008;28;89023;-64
2022/03/15 12:16:41;;;;;;;4.28;3.88;;;22.40;61.00;;;;;;6181845;28;89386;-64
2022/03/15 12:19:47;;;;;;;4.38;3.97;;;22.40;61.00;;;;;;6182032;28;89099;-64
2022/03/15 12:23:01;;;;;;;4.43;4.03;;;22.50;61.10;;;;;;6182398;28;89533;-64
2022/03/15 12:26:03;;;;;;;4.10;3.70;;;22.40;61.00;;;;;;6181054;28;89042;-64
2022/03/15 12:29:12;;;;;;;4.55;3.90;;;22.40;61.00;;;;;;6183916;28;87218;-64
2022/03/15 12:32:18;;;;;;;3.55;3.25;;;22.40;61.10;;;;;;6183521;28;88984;-64
2022/03/15 12:35:25;;;;;;;4.20;3.90;;;22.40;61.10;;;;;;6183610;28;89125;-64
2022/03/15 12:38:33;;;;;;;4.07;3.78;;;22.40;61.10;;;;;;6181076;28;90146;-64
2022/03/15 12:41:36;;;;;;;4.20;3.80;;;22.40;61.10;;;;;;6181931;28;89445;-64
2022/03/15 12:44:44;;;;;;;3.80;3.50;;;22.40;61.10;;;;;;6180897;28;89039;-64
2022/03/15 12:47:47;;;;;;;4.03;3.72;;;22.40;61.20;;;;;;6182496;28;88030;-64
2022/03/15 12:50:54;;;;;;;3.80;3.50;;;22.40;61.10;;;;;;6181904;28;88973;-64
2022/03/15 12:54:06;;;;;;;4.00;3.70;;;22.40;61.20;;;;;;6177466;28;89101;-64
2022/03/15 12:57:10;;;;;;;3.80;3.50;;;22.50;61.30;;;;;;6179141;28;89108;-64
2022/03/15 13:00:14;;;;;;;3.92;3.63;;;22.40;61.20;;;;;;6182551;28;88761;-64
2022/03/15 13:03:17;;;;;;;3.90;3.60;;;22.50;61.30;;;;;;6185038;28;89676;-64
2022/03/15 13:06:21;;;;;;;3.90;3.60;;;22.40;61.20;;;;;;6186554;28;89066;-64
2022/03/15 13:09:25;;;;;;;3.90;3.60;;;22.40;61.20;;;;;;6184975;28;89914;-64
2022/03/15 13:12:32;;;;;;;3.78;3.47;;;22.40;61.20;;;;;;6187568;28;89056;-63
2022/03/15 13:15:34;;;;;;;4.10;3.70;;;22.40;61.20;;;;;;6186802;28;87920;-63
2022/03/15 13:18:38;;;;;;;3.65;3.35;;;22.40;61.30;;;;;;6185196;28;88954;-63
2022/03/15 13:21:42;;;;;;;3.80;3.50;;;22.40;61.20;;;;;;6185335;28;89066;-64
2022/03/15 13:24:44;;;;;;;3.85;3.55;;;22.40;61.20;;;;;;6186689;28;89043;-64
2022/03/15 13:27:46;;;;;;;3.50;3.20;;;22.40;61.20;;;;;;6185751;28;89151;-64
2022/03/15 13:30:49;;;;;;;3.85;3.55;;;22.40;61.20;;;;;;6184855;28;87511;-64
2022/03/15 13:33:54;;;;;;;3.70;3.40;;;22.40;61.30;;;;;;6185766;28;89308;-64
2022/03/15 13:37:06;;;;;;;3.80;3.50;;;22.40;61.30;;;;;;6185250;28;89261;-64
2022/03/15 13:40:11;;;;;;;3.60;3.30;;;22.40;61.30;;;;;;6184190;28;90260;-64
2022/03/15 13:43:14;;;;;;;3.67;3.38;;;22.40;61.30;;;;;;6185817;28;89102;-63
2022/03/15 13:46:18;;;;;;;3.30;3.10;;;22.40;61.30;;;;;;6183678;28;89150;-64
2022/03/15 13:49:22;;;;;;;3.60;3.30;;;22.40;61.30;;;;;;6185843;28;88972;-64
2022/03/15 13:52:26;;;;;;;3.65;3.35;;;22.40;61.30;;;;;;6184492;28;89214;-63
2022/03/15 13:55:28;;;;;;;3.60;3.30;;;22.40;61.30;;;;;;6177762;28;89460;-64
2022/03/15 13:58:30;;;;;;;3.45;3.17;;;22.40;61.30;;;;;;6184555;28;88984;-64
2022/03/15 14:01:33;;;;;;;3.80;3.50;;;22.40;61.30;;;;;;6186459;28;87273;-63
2022/03/15 14:04:36;;;;;;;3.72;3.42;;;22.40;61.30;;;;;;6185085;28;89123;-64
2022/03/15 14:07:39;;;;;;;3.83;3.53;;;22.40;61.40;;;;;;6184140;28;88003;-64
2022/03/15 14:10:43;;;;;;;3.75;3.25;;;22.30;61.30;;;;;;6183926;28;88884;-63
2022/03/15 14:13:56;;;;;;;3.45;3.15;;;22.30;61.30;;;;;;6185364;28;89461;-64
2022/03/15 14:16:59;;;;;;;3.60;3.30;;;22.40;61.30;;;;;;6185042;28;88690;-64
2022/03/15 14:20:01;;;;;;;3.40;3.10;;;22.40;61.30;;;;;;6183845;28;89032;-64
2022/03/15 14:23:05;;;;;;;3.50;3.20;;;22.40;61.30;;;;;;6183341;28;88202;-64
2022/03/15 14:26:08;;;;;;;3.72;3.42;;;22.40;61.30;;;;;;6185127;28;89178;-64
2022/03/15 14:29:19;;;;;;;3.50;3.20;;;22.40;61.30;;;;;;6184373;28;89109;-64
2022/03/15 14:32:22;;;;;;;3.30;3.00;;;22.30;61.30;;;;;;6183826;28;88504;-64
2022/03/15 14:35:30;;;;;;;3.50;3.20;;;22.40;61.30;;;;;;6185653;28;89204;-64
2022/03/15 14:38:41;;;;;;;3.47;3.17;;;22.40;61.30;;;;;;6184402;28;89329;-63
2022/03/15 14:41:44;;;;;;;3.30;3.05;;;22.40;61.30;;;;;;6182876;28;88911;-64
2022/03/15 14:44:46;;;;;;;3.45;3.15;;;22.40;61.30;;;;;;6185303;28;89182;-64
2022/03/15 14:47:49;;;;;;;3.35;3.05;;;22.40;62.20;;;;;;6183518;28;88043;-64
2022/03/15 14:50:52;;;;;;;3.22;3.03;;;22.40;61.30;;;;;;6185773;28;88758;-64
2022/03/15 14:53:56;;;;;;;3.40;3.10;;;22.30;61.30;;;;;;6179272;28;89188;-63
2022/03/15 14:57:04;;;;;;;3.20;3.00;;;22.40;61.30;;;;;;6181475;28;89222;-64
2022/03/15 15:00:08;;;;;;;3.22;3.03;;;22.30;61.30;;;;;;6185509;28;89230;-64
2022/03/15 15:03:12;;;;;;;3.25;2.95;;;22.40;61.30;;;;;;6184825;28;88459;-64
2022/03/15 15:09:35;;;;;;;3.55;2.92;;;22.40;61.40;;;;;;6183980;28;87232;-64
2022/03/15 15:12:37;;;;;;;3.60;3.30;;;22.40;61.30;;;;;;6184469;28;89263;-64
2022/03/15 15:15:40;;;;;;;3.10;2.90;;;22.40;61.30;;;;;;6182598;28;89013;-64
2022/03/15 15:18:44;;;;;;;3.50;3.20;;;22.40;61.30;;;;;;6184597;28;89150;-63
2022/03/15 15:21:47;;;;;;;3.08;2.85;;;22.30;61.30;;;;;;6182997;28;88875;-64
2022/03/15 15:24:54;;;;;;;3.10;2.90;;;22.30;61.30;;;;;;6181537;28;89183;-64
2022/03/15 15:31:16;;;;;;;3.70;3.40;;;22.30;61.30;;;;;;6184243;28;87361;-64
2022/03/15 15:34:18;;;;;;;4.35;3.22;;;22.30;61.60;;;;;;6183742;28;88513;-64
2022/03/15 15:37:21;;;;;;;3.53;3.22;;;22.30;61.30;;;;;;6182512;28;89057;-64
2022/03/15 15:40:25;;;;;;;3.40;3.10;;;22.30;61.30;;;;;;6182301;28;89095;-64
2022/03/15 15:43:27;;;;;;;3.70;3.40;;;22.30;61.30;;;;;;6182853;28;89868;-64
2022/03/15 15:46:29;;;;;;;3.60;3.30;;;22.30;61.30;;;;;;6182463;28;89627;-64
2022/03/15 15:49:31;;;;;;;3.70;3.40;;;22.40;61.30;;;;;;6181549;28;89340;-64
2022/03/15 15:52:33;;;;;;;3.40;3.10;;;22.40;61.30;;;;;;6183096;28;89242;-64
2022/03/15 15:55:41;;;;;;;3.75;3.45;;;22.30;61.30;;;;;;6176091;28;88807;-64
2022/03/15 15:58:43;;;;;;;3.72;3.42;;;22.30;61.30;;;;;;6181720;28;89697;-64
2022/03/15 16:01:47;;;;;;;3.58;3.28;;;22.40;61.30;;;;;;6184526;28;89199;-64
2022/03/15 16:04:49;;;;;;;3.67;3.38;;;22.40;61.30;;;;;;6183038;28;88679;-64
2022/03/15 16:07:54;;;;;;;3.70;3.40;;;22.40;61.30;;;;;;6181585;28;89048;-64